Time;durP1;ratioP1;P1;durP2;ratioP2;P2;SDS_P1;SDS_P2;PMS_P1;PMS_P2;Temp;Humidity;BMP_temperature;BMP_pressure;BME280_temperature;BME280_humidity;BME280_pressure;Samples;Min_cycle;Max_cycle;Signal;HPM_P1;HPM_P2
2022/10/24 00:01:00;;;;;;;6.82;2.00;;;;;;;;;;5167437;27;20084;-84
2022/10/24 00:03:44;;;;;;;4.57;2.05;;;;;;;;;;5170354;27;20832;-84
2022/10/24 00:06:33;;;;;;;8.15;2.00;;;;;;;;;;5170599;27;20463;-84
2022/10/24 00:09:30;;;;;;;7.07;1.83;;;;;;;;;;5170430;27;20084;-84
2022/10/24 00:12:15;;;;;;;10.93;1.98;;;;;;;;;;5134194;27;20058;-84
2022/10/24 00:14:58;;;;;;;7.85;2.20;;;;;;;;;;5173561;27;20039;-84
2022/10/24 00:17:26;;;;;;;10.10;2.22;;;;;;;;;;5170059;27;20511;-83
2022/10/24 00:20:00;;;;;;;5.95;1.70;;;;;;;;;;5166904;27;20293;-84
2022/10/24 00:22:36;;;;;;;;;;;;;;;;;;5165929;27;20047;-84
2022/10/24 00:25:05;;;;;;;15.20;2.63;;;;;;;;;;5166798;27;41997;-84
2022/10/24 00:30:25;;;;;;;5.68;1.90;;;;;;;;;;5171129;27;20051;-84
2022/10/24 00:32:54;;;;;;;5.72;1.92;;;;;;;;;;5168746;27;20050;-84
2022/10/24 00:35:29;;;;;;;8.77;2.10;;;;;;;;;;5172527;27;20078;-84
2022/10/24 00:38:03;;;;;;;8.07;2.15;;;;;;;;;;5168087;27;20026;-84
2022/10/24 00:40:32;;;;;;;7.20;2.38;;;;;;;;;;5168012;27;20142;-83
2022/10/24 00:43:08;;;;;;;5.13;2.00;;;;;;;;;;5165554;27;20055;-83
2022/10/24 00:45:45;;;;;;;11.02;2.22;;;;;;;;;;5168396;27;20058;-83
2022/10/24 00:48:40;;;;;;;6.45;2.40;;;;;;;;;;5164956;27;20050;-82
2022/10/24 00:51:17;;;;;;;5.75;2.10;;;;;;;;;;5166223;27;20137;-85
2022/10/24 00:54:05;;;;;;;7.90;2.08;;;;;;;;;;5169314;27;20054;-82
2022/10/24 00:56:35;;;;;;;8.25;2.20;;;;;;;;;;5168887;27;20063;-85
2022/10/24 00:59:11;;;;;;;5.63;2.00;;;;;;;;;;5168823;27;20055;-85
2022/10/24 01:01:48;;;;;;;7.40;1.90;;;;;;;;;;5167962;27;20053;-85
2022/10/24 01:04:17;;;;;;;11.57;2.75;;;;;;;;;;5168215;27;20053;-84
2022/10/24 01:06:56;;;;;;;6.13;2.00;;;;;;;;;;5170382;27;20046;-83
2022/10/24 01:09:39;;;;;;;8.10;1.95;;;;;;;;;;5167551;27;20658;-83
2022/10/24 01:12:07;;;;;;;5.50;1.85;;;;;;;;;;5164531;27;20047;-86
2022/10/24 01:15:13;;;;;;;6.80;2.25;;;;;;;;;;5166524;27;20047;-85
2022/10/24 01:18:06;;;;;;;12.63;1.65;;;;;;;;;;5123526;27;20102;-84
2022/10/24 01:20:57;;;;;;;6.30;1.83;;;;;;;;;;5115617;27;20125;-83
2022/10/24 01:23:33;;;;;;;5.20;1.75;;;;;;;;;;5117271;27;20079;-83
2022/10/24 01:26:25;;;;;;;4.13;1.83;;;;;;;;;;5119212;27;20097;-83
2022/10/24 01:29:21;;;;;;;13.57;2.03;;;;;;;;;;5118129;27;20032;-83
2022/10/24 01:32:37;;;;;;;2.70;1.48;;;;;;;;;;5111513;27;20040;-83
2022/10/24 01:35:06;;;;;;;7.55;1.90;;;;;;;;;;5117011;27;20141;-83
2022/10/24 01:38:03;;;;;;;4.60;1.77;;;;;;;;;;5114743;27;20055;-84
2022/10/24 01:40:55;;;;;;;5.60;1.73;;;;;;;;;;5115793;27;20091;-83
2022/10/24 01:43:38;;;;;;;5.60;1.73;;;;;;;;;;5119537;27;20956;-83
2022/10/24 01:46:05;;;;;;;;;;;;;;;;;;5116258;27;20048;-83
2022/10/24 01:49:12;;;;;;;5.20;1.95;;;;;;;;;;5112326;27;19923;-86
2022/10/24 01:51:40;;;;;;;5.82;1.63;;;;;;;;;;5143974;27;20050;-83
2022/10/24 01:54:08;;;;;;;5.50;1.70;;;;;;;;;;5166294;27;20088;-83
2022/10/24 01:57:00;;;;;;;6.43;1.60;;;;;;;;;;5166521;27;20054;-86
2022/10/24 01:59:32;;;;;;;8.57;1.63;;;;;;;;;;5166836;27;20161;-85
2022/10/24 02:02:12;;;;;;;4.35;1.55;;;;;;;;;;5169351;27;20089;-85
2022/10/24 02:04:50;;;;;;;4.07;1.98;;;;;;;;;;5163657;27;20062;-85
2022/10/24 02:07:58;;;;;;;5.28;1.55;;;;;;;;;;5141647;27;20054;-84
2022/10/24 02:10:37;;;;;;;10.18;2.00;;;;;;;;;;5166020;27;20053;-84
2022/10/24 02:13:16;;;;;;;8.53;2.03;;;;;;;;;;5166408;27;20059;-84
2022/10/24 02:15:49;;;;;;;4.70;1.77;;;;;;;;;;5180765;27;20111;-85
2022/10/24 02:18:17;;;;;;;5.63;1.70;;;;;;;;;;5165862;27;20501;-84
2022/10/24 02:21:06;;;;;;;10.65;1.83;;;;;;;;;;5166577;27;20050;-83
2022/10/24 02:23:42;;;;;;;6.10;1.60;;;;;;;;;;5165460;27;20055;-84
2022/10/24 02:26:11;;;;;;;11.18;1.80;;;;;;;;;;5167190;27;20058;-83
2022/10/24 02:28:43;;;;;;;5.35;1.75;;;;;;;;;;5165110;27;20046;-83
2022/10/24 02:31:16;;;;;;;6.70;1.65;;;;;;;;;;5164778;27;20055;-84
2022/10/24 02:33:45;;;;;;;7.32;2.30;;;;;;;;;;5164129;27;20557;-85
2022/10/24 02:36:16;;;;;;;5.00;1.55;;;;;;;;;;5165445;27;20047;-83
2022/10/24 02:38:45;;;;;;;5.78;1.60;;;;;;;;;;5163177;27;20046;-85
2022/10/24 02:41:19;;;;;;;6.10;1.73;;;;;;;;;;5164175;27;20054;-84
2022/10/24 02:43:49;;;;;;;17.13;2.13;;;;;;;;;;5162559;27;20039;-83
2022/10/24 02:46:52;;;;;;;6.82;1.60;;;;;;;;;;5164242;27;20104;-85
2022/10/24 02:49:49;;;;;;;2.67;1.38;;;;;;;;;;5166235;27;20059;-83
2022/10/24 02:52:47;;;;;;;6.88;1.70;;;;;;;;;;5163916;27;20043;-83
2022/10/24 02:55:18;;;;;;;6.60;1.65;;;;;;;;;;5166209;27;20041;-84
2022/10/24 02:58:04;;;;;;;6.38;1.67;;;;;;;;;;5163201;27;20823;-83
2022/10/24 03:00:46;;;;;;;7.35;1.58;;;;;;;;;;5135311;27;20054;-83
2022/10/24 03:03:21;;;;;;;9.27;1.77;;;;;;;;;;5164834;27;20647;-83
2022/10/24 03:05:52;;;;;;;7.13;1.73;;;;;;;;;;5166884;27;20432;-85
2022/10/24 03:08:47;;;;;;;6.18;1.63;;;;;;;;;;5165390;27;20127;-83
2022/10/24 03:11:43;;;;;;;;;;;;;;;;;;;;;
2022/10/24 03:14:29;;;;;;;6.60;1.55;;;;;;;;;;5168629;27;20056;-84
2022/10/24 03:17:22;;;;;;;3.25;1.50;;;;;;;;;;5147236;27;20070;-83
2022/10/24 03:19:50;;;;;;;4.30;1.38;;;;;;;;;;5171963;27;20042;-86
2022/10/24 03:22:37;;;;;;;7.85;1.80;;;;;;;;;;5169404;27;20076;-85
2022/10/24 03:25:16;;;;;;;5.97;1.73;;;;;;;;;;5166228;27;20503;-83
2022/10/24 03:27:47;;;;;;;1.77;1.20;;;;;;;;;;5167819;27;20057;-83
2022/10/24 03:30:33;;;;;;;8.10;1.75;;;;;;;;;;5167049;27;20509;-86
2022/10/24 03:33:02;;;;;;;6.45;1.38;;;;;;;;;;5166101;27;20058;-85
2022/10/24 03:35:29;;;;;;;3.65;1.38;;;;;;;;;;5167870;27;20054;-85
2022/10/24 03:37:57;;;;;;;5.53;1.35;;;;;;;;;;5166577;27;20886;-84
2022/10/24 03:40:49;;;;;;;3.83;1.17;;;;;;;;;;5163183;27;20776;-85
2022/10/24 03:43:37;;;;;;;;;;;;;;;;;;5167210;27;20058;-83
2022/10/24 03:46:17;;;;;;;6.15;1.42;;;;;;;;;;5165202;27;43485;-84
2022/10/24 03:49:06;;;;;;;9.57;1.23;;;;;;;;;;5165034;27;20185;-85
2022/10/24 03:51:47;;;;;;;4.45;0.90;;;;;;;;;;5166627;27;20039;-85
2022/10/24 03:54:34;;;;;;;5.35;1.25;;;;;;;;;;5136348;27;20128;-83
2022/10/24 03:57:02;;;;;;;6.47;1.27;;;;;;;;;;5166004;27;20462;-83
2022/10/24 03:59:34;;;;;;;5.82;1.23;;;;;;;;;;5164310;27;20080;-84
2022/10/24 04:02:21;;;;;;;8.57;1.13;;;;;;;;;;5166757;27;20038;-83
2022/10/24 04:04:53;;;;;;;4.57;1.23;;;;;;;;;;5162512;27;20057;-83
2022/10/24 04:07:28;;;;;;;7.18;1.35;;;;;;;;;;5168254;27;20047;-83
2022/10/24 04:10:02;;;;;;;3.42;1.13;;;;;;;;;;5166756;27;20415;-83
2022/10/24 04:13:03;;;;;;;7.60;1.20;;;;;;;;;;5162342;27;20050;-83
2022/10/24 04:15:43;;;;;;;6.03;0.95;;;;;;;;;;5166108;27;20051;-83
2022/10/24 04:18:15;;;;;;;9.15;1.70;;;;;;;;;;5166076;27;20057;-83
2022/10/24 04:21:09;;;;;;;12.15;1.65;;;;;;;;;;5162407;27;20050;-83
2022/10/24 04:23:40;;;;;;;8.93;1.50;;;;;;;;;;5164858;27;20046;-83
2022/10/24 04:26:27;;;;;;;10.98;1.38;;;;;;;;;;5160091;27;20051;-82
2022/10/24 04:29:01;;;;;;;5.35;1.30;;;;;;;;;;5163081;27;20564;-83
2022/10/24 04:31:49;;;;;;;2.65;0.73;;;;;;;;;;5166539;27;20047;-84
2022/10/24 04:34:18;;;;;;;4.68;1.33;;;;;;;;;;5165619;27;20441;-84
2022/10/24 04:36:45;;;;;;;7.55;1.40;;;;;;;;;;5164564;27;20046;-83
2022/10/24 04:39:28;;;;;;;9.23;1.42;;;;;;;;;;5164249;27;20050;-84
2022/10/24 04:42:23;;;;;;;3.47;1.00;;;;;;;;;;5166278;27;20035;-84
2022/10/24 04:45:28;;;;;;;6.35;1.15;;;;;;;;;;5163360;27;20094;-83
2022/10/24 04:48:09;;;;;;;3.95;0.80;;;;;;;;;;5167503;27;20050;-83
2022/10/24 04:51:10;;;;;;;3.92;1.13;;;;;;;;;;5102764;27;20060;-83
2022/10/24 04:53:55;;;;;;;2.97;1.00;;;;;;;;;;5089613;27;20307;-84
2022/10/24 04:56:40;;;;;;;8.57;1.33;;;;;;;;;;5100786;27;20058;-84
2022/10/24 04:59:18;;;;;;;12.10;1.40;;;;;;;;;;5101799;27;20096;-83
2022/10/24 05:02:10;;;;;;;2.50;0.80;;;;;;;;;;5081503;27;20056;-84
2022/10/24 05:04:51;;;;;;;5.57;1.20;;;;;;;;;;5096739;27;20141;-83
2022/10/24 05:07:24;;;;;;;6.38;1.42;;;;;;;;;;5098162;27;20056;-84
2022/10/24 05:10:01;;;;;;;6.22;1.23;;;;;;;;;;5099154;27;20071;-83
2022/10/24 05:12:43;;;;;;;8.52;1.50;;;;;;;;;;5096720;27;20055;-83
2022/10/24 05:15:28;;;;;;;4.00;1.00;;;;;;;;;;5130449;27;20065;-84
2022/10/24 05:17:59;;;;;;;4.10;1.08;;;;;;;;;;5166533;27;20094;-83
2022/10/24 05:20:39;;;;;;;3.10;1.02;;;;;;;;;;5166918;27;20051;-84
2022/10/24 05:23:08;;;;;;;4.40;1.20;;;;;;;;;;5167753;27;20055;-84
2022/10/24 05:25:44;;;;;;;4.65;1.33;;;;;;;;;;5166314;27;20054;-83
2022/10/24 05:28:53;;;;;;;;;;;;;;;;;;;;;
2022/10/24 05:31:23;;;;;;;4.68;1.10;;;;;;;;;;5164043;27;20054;-83
2022/10/24 05:34:23;;;;;;;13.90;1.17;;;;;;;;;;5135906;27;20050;-83
2022/10/24 05:37:08;;;;;;;3.15;1.27;;;;;;;;;;5165358;27;20126;-83
2022/10/24 05:39:55;;;;;;;6.78;1.10;;;;;;;;;;5120921;27;20058;-83
2022/10/24 05:42:39;;;;;;;8.18;1.58;;;;;;;;;;5165765;27;20599;-84
2022/10/24 05:45:11;;;;;;;8.60;1.20;;;;;;;;;;5168387;27;20138;-83
2022/10/24 05:47:45;;;;;;;12.10;1.60;;;;;;;;;;5166195;27;20627;-83
2022/10/24 05:50:26;;;;;;;8.82;1.30;;;;;;;;;;5167434;27;20584;-82
2022/10/24 05:52:58;;;;;;;6.15;1.13;;;;;;;;;;5155560;27;20127;-83
2022/10/24 05:55:32;;;;;;;6.38;1.10;;;;;;;;;;5155272;27;20063;-83
2022/10/24 05:58:01;;;;;;;5.50;1.20;;;;;;;;;;5159812;27;20050;-83
2022/10/24 06:00:50;;;;;;;7.32;1.30;;;;;;;;;;5169310;27;20303;-83
2022/10/24 06:03:20;;;;;;;4.10;1.33;;;;;;;;;;5158133;27;20098;-83
2022/10/24 06:05:47;;;;;;;7.00;1.27;;;;;;;;;;5159947;27;20124;-83
2022/10/24 06:08:24;;;;;;;12.07;1.98;;;;;;;;;;5166468;27;20055;-84
2022/10/24 06:11:14;;;;;;;3.00;0.80;;;;;;;;;;5144777;27;20055;-84
2022/10/24 06:13:48;;;;;;;9.00;1.20;;;;;;;;;;5165657;27;20090;-83
2022/10/24 06:16:41;;;;;;;4.88;1.15;;;;;;;;;;5162573;27;20156;-84
2022/10/24 06:19:20;;;;;;;3.88;1.33;;;;;;;;;;5166372;27;20062;-84
2022/10/24 06:21:48;;;;;;;8.10;1.38;;;;;;;;;;5166484;27;20055;-83
2022/10/24 06:24:23;;;;;;;9.35;1.48;;;;;;;;;;5162889;27;20050;-83
2022/10/24 06:26:50;;;;;;;7.00;1.27;;;;;;;;;;5163200;27;20752;-83
2022/10/24 06:29:27;;;;;;;4.65;1.48;;;;;;;;;;5169108;27;20043;-83
2022/10/24 06:31:54;;;;;;;4.70;1.33;;;;;;;;;;5152812;27;20818;-83
2022/10/24 06:34:26;;;;;;;6.72;1.40;;;;;;;;;;5162720;27;20051;-83
2022/10/24 06:37:07;;;;;;;3.70;1.35;;;;;;;;;;5165337;27;20103;-83
2022/10/24 06:39:36;;;;;;;2.78;0.93;;;;;;;;;;5166126;27;20073;-84
2022/10/24 06:42:04;;;;;;;6.07;1.20;;;;;;;;;;5165752;27;20061;-84
2022/10/24 06:44:35;;;;;;;5.47;1.58;;;;;;;;;;5156561;27;20055;-84
2022/10/24 06:47:02;;;;;;;3.95;1.00;;;;;;;;;;5159285;27;20073;-84
2022/10/24 06:49:29;;;;;;;7.30;1.80;;;;;;;;;;5162175;27;20039;-83
2022/10/24 06:52:00;;;;;;;8.15;1.52;;;;;;;;;;5154543;27;20061;-84
2022/10/24 06:54:33;;;;;;;5.50;1.13;;;;;;;;;;5166990;27;20051;-83
2022/10/24 06:57:05;;;;;;;7.13;1.35;;;;;;;;;;5167155;27;20918;-83
2022/10/24 06:59:42;;;;;;;3.72;1.25;;;;;;;;;;5160614;27;20086;-83
2022/10/24 07:02:12;;;;;;;5.80;1.48;;;;;;;;;;5155038;27;20051;-85
2022/10/24 07:04:40;;;;;;;3.38;1.08;;;;;;;;;;5160377;27;20055;-83
2022/10/24 07:07:13;;;;;;;8.05;1.20;;;;;;;;;;5158715;27;20094;-86
2022/10/24 07:09:57;;;;;;;7.00;1.25;;;;;;;;;;5158503;27;20058;-84
2022/10/24 07:12:24;;;;;;;6.93;1.42;;;;;;;;;;5166835;27;20833;-85
2022/10/24 07:14:56;;;;;;;4.82;1.30;;;;;;;;;;5162902;27;20058;-85
2022/10/24 07:17:24;;;;;;;5.95;1.52;;;;;;;;;;5144333;27;20051;-85
2022/10/24 07:19:58;;;;;;;7.35;1.52;;;;;;;;;;5160759;27;20054;-85
2022/10/24 07:22:27;;;;;;;6.60;1.63;;;;;;;;;;5160778;27;20195;-85
2022/10/24 07:25:12;;;;;;;7.40;1.63;;;;;;;;;;5163276;27;20094;-85
2022/10/24 07:27:59;;;;;;;5.15;1.27;;;;;;;;;;5161536;27;20062;-84
2022/10/24 07:30:29;;;;;;;8.13;1.67;;;;;;;;;;5168917;27;20055;-84
2022/10/24 07:33:03;;;;;;;12.52;1.88;;;;;;;;;;5164277;27;20067;-86
2022/10/24 07:35:32;;;;;;;11.10;1.52;;;;;;;;;;5152649;27;20079;-84
2022/10/24 07:37:59;;;;;;;10.00;1.40;;;;;;;;;;5160929;27;20055;-84
2022/10/24 07:40:30;;;;;;;9.65;1.10;;;;;;;;;;5162049;27;20081;-85
2022/10/24 07:43:03;;;;;;;7.15;1.35;;;;;;;;;;5161123;27;20050;-84
2022/10/24 07:45:43;;;;;;;4.88;1.67;;;;;;;;;;5157349;27;20504;-84
2022/10/24 07:48:17;;;;;;;10.30;1.77;;;;;;;;;;5157609;27;20061;-84
2022/10/24 07:50:53;;;;;;;4.30;0.90;;;;;;;;;;5152030;27;20850;-85
2022/10/24 07:53:29;;;;;;;8.55;1.20;;;;;;;;;;5163114;27;20050;-85
2022/10/24 07:56:14;;;;;;;6.78;1.58;;;;;;;;;;5159351;27;20134;-84
2022/10/24 07:58:43;;;;;;;9.13;1.50;;;;;;;;;;5165102;27;20046;-84
2022/10/24 08:04:34;;;;;;;7.28;1.27;;;;;;;;;;5152424;27;20036;-84
2022/10/24 08:07:11;;;;;;;5.07;1.52;;;;;;;;;;5151222;27;20080;-85
2022/10/24 08:09:42;;;;;;;5.60;1.30;;;;;;;;;;5157943;27;20050;-85
2022/10/24 08:12:09;;;;;;;2.10;0.93;;;;;;;;;;5150430;27;20063;-84
2022/10/24 08:14:41;;;;;;;9.75;1.60;;;;;;;;;;5161359;27;20051;-84
2022/10/24 08:17:22;;;;;;;7.13;1.50;;;;;;;;;;5161345;27;20059;-85
2022/10/24 08:19:50;;;;;;;5.80;1.05;;;;;;;;;;5160594;27;20280;-84
2022/10/24 08:22:20;;;;;;;5.72;1.33;;;;;;;;;;5163850;27;20106;-84
2022/10/24 08:24:55;;;;;;;4.05;1.08;;;;;;;;;;5165545;27;20116;-84
2022/10/24 08:27:32;;;;;;;3.83;0.95;;;;;;;;;;5166472;27;20200;-84
2022/10/24 08:29:59;;;;;;;13.73;1.17;;;;;;;;;;5155186;27;20094;-84
2022/10/24 08:32:26;;;;;;;4.72;1.00;;;;;;;;;;5155774;27;20051;-84
2022/10/24 08:34:53;;;;;;;6.50;1.38;;;;;;;;;;5158529;27;20082;-84
2022/10/24 08:37:22;;;;;;;8.95;1.80;;;;;;;;;;5161061;27;20122;-85
2022/10/24 08:39:54;;;;;;;6.45;1.30;;;;;;;;;;5159430;27;20910;-84
2022/10/24 08:42:26;;;;;;;6.57;1.38;;;;;;;;;;5166646;27;20107;-84
2022/10/24 08:44:54;;;;;;;5.28;1.85;;;;;;;;;;5173664;27;20980;-85
2022/10/24 08:47:34;;;;;;;8.60;1.45;;;;;;;;;;5161286;27;20062;-84
2022/10/24 08:50:34;;;;;;;5.82;1.17;;;;;;;;;;5163976;27;20062;-84
2022/10/24 08:53:21;;;;;;;5.72;1.40;;;;;;;;;;5169831;27;20051;-85
2022/10/24 08:56:12;;;;;;;7.63;1.27;;;;;;;;;;5158201;27;20116;-85
2022/10/24 08:58:41;;;;;;;8.38;1.27;;;;;;;;;;5159848;27;20050;-85
2022/10/24 09:01:17;;;;;;;7.75;1.13;;;;;;;;;;5156628;27;20784;-85
2022/10/24 09:03:59;;;;;;;3.33;0.93;;;;;;;;;;5161294;27;20086;-84
2022/10/24 09:06:28;;;;;;;8.20;1.27;;;;;;;;;;5169791;27;20047;-85
2022/10/24 09:08:59;;;;;;;3.45;1.25;;;;;;;;;;5156237;27;20551;-84
2022/10/24 09:11:48;;;;;;;7.38;1.50;;;;;;;;;;5165628;27;20111;-84
2022/10/24 09:14:24;;;;;;;10.25;1.20;;;;;;;;;;5157565;27;20852;-84
2022/10/24 09:17:10;;;;;;;13.48;1.77;;;;;;;;;;5162438;27;20060;-85
2022/10/24 09:19:47;;;;;;;10.82;1.20;;;;;;;;;;5159866;27;20075;-84
2022/10/24 09:22:23;;;;;;;5.90;1.13;;;;;;;;;;5156684;27;20051;-84
2022/10/24 09:25:02;;;;;;;3.53;1.63;;;;;;;;;;5165070;27;20108;-84
2022/10/24 09:27:51;;;;;;;5.30;1.40;;;;;;;;;;5120020;27;20134;-84
2022/10/24 09:30:23;;;;;;;9.90;1.40;;;;;;;;;;5168169;27;20791;-84
2022/10/24 09:32:59;;;;;;;7.68;1.30;;;;;;;;;;5170115;27;20050;-84
2022/10/24 09:35:34;;;;;;;5.95;1.13;;;;;;;;;;5167039;27;20085;-84
2022/10/24 09:38:34;;;;;;;4.25;1.27;;;;;;;;;;5160216;27;20055;-84
2022/10/24 09:41:04;;;;;;;9.52;1.83;;;;;;;;;;5159336;27;20860;-84
2022/10/24 09:43:33;;;;;;;9.52;1.70;;;;;;;;;;5169844;27;20108;-84
2022/10/24 09:46:04;;;;;;;6.57;1.20;;;;;;;;;;5163944;27;20046;-84
2022/10/24 09:48:54;;;;;;;5.85;1.00;;;;;;;;;;5164039;27;20051;-84
2022/10/24 09:51:23;;;;;;;7.20;1.45;;;;;;;;;;5162500;27;20047;-83
2022/10/24 09:54:09;;;;;;;3.10;1.10;;;;;;;;;;5166479;27;20081;-84
2022/10/24 09:56:41;;;;;;;8.45;1.05;;;;;;;;;;5168455;27;20046;-84
2022/10/24 09:59:19;;;;;;;7.35;1.60;;;;;;;;;;5154911;27;20050;-85
2022/10/24 10:02:18;;;;;;;4.57;1.55;;;;;;;;;;5159620;27;20125;-84
2022/10/24 10:05:18;;;;;;;4.70;1.20;;;;;;;;;;5159745;27;20057;-84
2022/10/24 10:07:51;;;;;;;6.72;1.30;;;;;;;;;;5166789;27;20050;-84
2022/10/24 10:10:18;;;;;;;3.92;1.27;;;;;;;;;;5162169;27;20107;-84
2022/10/24 10:12:47;;;;;;;4.22;1.02;;;;;;;;;;5160264;27;20062;-83
2022/10/24 10:15:28;;;;;;;6.80;1.42;;;;;;;;;;5161910;27;20051;-85
2022/10/24 10:18:03;;;;;;;6.57;1.33;;;;;;;;;;5162993;27;20039;-84
2022/10/24 10:20:59;;;;;;;4.00;1.13;;;;;;;;;;5165188;27;20100;-83
2022/10/24 10:23:32;;;;;;;6.93;1.40;;;;;;;;;;5165896;27;20058;-84
2022/10/24 10:26:01;;;;;;;;;;;;;;;;;;5161283;27;20062;-84
2022/10/24 10:29:02;;;;;;;4.00;1.05;;;;;;;;;;5164921;27;19923;-84
2022/10/24 10:31:48;;;;;;;3.92;0.93;;;;;;;;;;5164979;27;20600;-83
2022/10/24 10:34:47;;;;;;;;;;;;;;;;;;;;;
2022/10/24 10:37:27;;;;;;;2.80;0.85;;;;;;;;;;5159042;27;20051;-84
2022/10/24 10:40:02;;;;;;;4.53;1.30;;;;;;;;;;5160322;27;20516;-84
2022/10/24 10:42:35;;;;;;;4.47;0.80;;;;;;;;;;5153001;27;20104;-84
2022/10/24 10:45:05;;;;;;;6.95;1.40;;;;;;;;;;5156446;27;20068;-84
2022/10/24 10:47:41;;;;;;;6.10;1.27;;;;;;;;;;5159369;27;20596;-84
2022/10/24 10:50:29;;;;;;;3.67;0.90;;;;;;;;;;5160605;27;20473;-84
2022/10/24 10:53:04;;;;;;;5.00;1.05;;;;;;;;;;5141587;27;20347;-84
2022/10/24 10:55:44;;;;;;;6.28;1.42;;;;;;;;;;5166412;27;20131;-85
2022/10/24 10:58:30;;;;;;;4.97;1.17;;;;;;;;;;5157618;27;20054;-84
2022/10/24 11:01:30;;;;;;;2.05;1.02;;;;;;;;;;5159738;27;20050;-84
2022/10/24 11:04:27;;;;;;;5.30;1.45;;;;;;;;;;5159508;27;20051;-85
2022/10/24 11:07:06;;;;;;;4.38;1.05;;;;;;;;;;5156388;27;20051;-84
2022/10/24 11:10:07;;;;;;;4.20;1.30;;;;;;;;;;5154952;27;20055;-84
2022/10/24 11:13:06;;;;;;;6.13;1.50;;;;;;;;;;5112630;27;20051;-84
2022/10/24 11:15:36;;;;;;;5.82;1.10;;;;;;;;;;5128024;27;20142;-84
2022/10/24 11:18:48;;;;;;;3.63;1.52;;;;;;;;;;5161201;27;20051;-83
2022/10/24 11:21:20;;;;;;;4.40;1.10;;;;;;;;;;5119436;27;20050;-84
2022/10/24 11:24:11;;;;;;;3.60;1.15;;;;;;;;;;5165718;27;20054;-84
2022/10/24 11:27:09;;;;;;;4.93;1.15;;;;;;;;;;5158804;27;20524;-84
2022/10/24 11:29:46;;;;;;;7.28;1.35;;;;;;;;;;5155204;27;20073;-84
2022/10/24 11:32:43;;;;;;;5.22;1.27;;;;;;;;;;5166469;27;20054;-84
2022/10/24 11:38:55;;;;;;;4.28;1.30;;;;;;;;;;5101201;28;20422;-84
2022/10/24 11:41:49;;;;;;;3.67;1.10;;;;;;;;;;5099303;28;20075;-84
2022/10/24 11:44:35;;;;;;;2.47;1.20;;;;;;;;;;5089017;28;20060;-84
2022/10/24 11:47:28;;;;;;;7.37;1.20;;;;;;;;;;5086456;28;20109;-84
2022/10/24 11:50:18;;;;;;;5.78;1.20;;;;;;;;;;5098842;28;20306;-84
2022/10/24 11:53:13;;;;;;;3.10;1.27;;;;;;;;;;5099802;28;20052;-84
2022/10/24 11:55:45;;;;;;;4.80;1.73;;;;;;;;;;5079295;28;20457;-85
2022/10/24 11:59:10;;;;;;;;;;;;;;;;;;;;;
2022/10/24 12:02:09;;;;;;;3.88;0.75;;;;;;;;;;5103786;28;20044;-84
2022/10/24 12:05:10;;;;;;;2.50;0.98;;;;;;;;;;5102055;28;20059;-84
2022/10/24 12:08:12;;;;;;;3.72;1.38;;;;;;;;;;5071466;28;20105;-85
2022/10/24 12:11:13;;;;;;;3.33;1.10;;;;;;;;;;5153766;27;20058;-84
2022/10/24 12:14:17;;;;;;;3.67;1.58;;;;;;;;;;5160306;27;20051;-83
2022/10/24 12:17:00;;;;;;;4.45;1.25;;;;;;;;;;5159634;27;20051;-84
2022/10/24 12:19:28;;;;;;;6.15;1.45;;;;;;;;;;5156519;27;20058;-84
2022/10/24 12:22:01;;;;;;;7.07;1.33;;;;;;;;;;5158881;27;20088;-84
2022/10/24 12:24:48;;;;;;;1.85;1.15;;;;;;;;;;5157288;27;20055;-84
2022/10/24 12:27:34;;;;;;;3.47;1.20;;;;;;;;;;5164248;27;20055;-84
2022/10/24 12:30:23;;;;;;;3.33;1.08;;;;;;;;;;5150454;27;20473;-84
2022/10/24 12:33:16;;;;;;;5.50;1.60;;;;;;;;;;5160935;27;20047;-85
2022/10/24 12:35:56;;;;;;;6.95;1.20;;;;;;;;;;5162971;27;20043;-84
2022/10/24 12:38:28;;;;;;;4.38;1.20;;;;;;;;;;5166692;27;20051;-85
2022/10/24 12:41:15;;;;;;;7.80;1.10;;;;;;;;;;5164694;27;20047;-84
2022/10/24 12:43:43;;;;;;;5.28;1.20;;;;;;;;;;5163282;27;20733;-85
2022/10/24 12:46:43;;;;;;;2.10;1.00;;;;;;;;;;5166818;27;20143;-84
2022/10/24 12:49:36;;;;;;;4.85;1.00;;;;;;;;;;5157688;27;20051;-84
2022/10/24 12:52:23;;;;;;;3.75;1.30;;;;;;;;;;5151010;27;20059;-84
2022/10/24 12:54:53;;;;;;;5.18;1.30;;;;;;;;;;5161611;27;20493;-85
2022/10/24 12:57:44;;;;;;;7.75;1.42;;;;;;;;;;5167804;27;20104;-84
2022/10/24 13:00:28;;;;;;;2.65;1.33;;;;;;;;;;5166951;27;20103;-84
2022/10/24 13:03:16;;;;;;;2.88;1.05;;;;;;;;;;5162557;27;20151;-85
2022/10/24 13:06:01;;;;;;;6.38;0.90;;;;;;;;;;5165538;27;20047;-84
2022/10/24 13:08:40;;;;;;;3.22;1.08;;;;;;;;;;5161265;27;20057;-84
2022/10/24 13:11:30;;;;;;;4.15;1.17;;;;;;;;;;5164109;27;20058;-84
2022/10/24 13:14:10;;;;;;;8.23;1.70;;;;;;;;;;5159303;27;20157;-84
2022/10/24 13:19:42;;;;;;;8.38;1.38;;;;;;;;;;5166100;27;20066;-84
2022/10/24 13:22:26;;;;;;;8.60;1.60;;;;;;;;;;5164185;27;20051;-84
2022/10/24 13:25:12;;;;;;;8.90;1.70;;;;;;;;;;5167288;27;20522;-84
2022/10/24 13:27:45;;;;;;;6.05;1.60;;;;;;;;;;5166029;27;20051;-84
2022/10/24 13:30:26;;;;;;;2.60;1.25;;;;;;;;;;5160977;27;20049;-83
2022/10/24 13:33:12;;;;;;;7.70;1.73;;;;;;;;;;5160886;27;20053;-84
2022/10/24 13:35:45;;;;;;;5.43;1.60;;;;;;;;;;5161587;27;20077;-85
2022/10/24 13:38:18;;;;;;;3.85;1.55;;;;;;;;;;5162059;27;20055;-84
2022/10/24 13:40:55;;;;;;;11.80;2.35;;;;;;;;;;5163079;27;20055;-84
2022/10/24 13:43:26;;;;;;;3.03;1.48;;;;;;;;;;5155252;27;20059;-84
2022/10/24 13:46:06;;;;;;;7.05;1.58;;;;;;;;;;5165673;27;20127;-84
2022/10/24 13:48:48;;;;;;;8.43;2.03;;;;;;;;;;5167555;27;20488;-84
2022/10/24 13:51:50;;;;;;;6.47;1.77;;;;;;;;;;5166150;27;20453;-83
2022/10/24 13:54:36;;;;;;;7.75;2.03;;;;;;;;;;5154455;27;20882;-83
2022/10/24 13:57:53;;;;;;;3.67;1.45;;;;;;;;;;5153234;27;20481;-83
2022/10/24 14:00:28;;;;;;;6.82;1.98;;;;;;;;;;5167765;27;20047;-84
2022/10/24 14:03:18;;;;;;;6.15;1.70;;;;;;;;;;5157639;27;21423;-84
2022/10/24 14:05:55;;;;;;;9.13;1.70;;;;;;;;;;5155059;27;20621;-83
2022/10/24 14:08:31;;;;;;;5.18;1.45;;;;;;;;;;5167031;27;20448;-83
2022/10/24 14:11:00;;;;;;;5.82;1.52;;;;;;;;;;5165335;27;20596;-83
2022/10/24 14:13:29;;;;;;;6.15;1.67;;;;;;;;;;5157825;27;20102;-83
2022/10/24 14:15:59;;;;;;;9.38;1.70;;;;;;;;;;5169166;27;20138;-83
2022/10/24 14:18:31;;;;;;;4.88;1.60;;;;;;;;;;5157228;27;20055;-84
2022/10/24 14:21:04;;;;;;;8.95;1.50;;;;;;;;;;5163836;27;20970;-84
2022/10/24 14:24:08;;;;;;;4.30;1.80;;;;;;;;;;5166254;27;20054;-83
2022/10/24 14:26:57;;;;;;;5.97;1.27;;;;;;;;;;5144946;27;20047;-83
2022/10/24 14:29:27;;;;;;;11.02;2.05;;;;;;;;;;5160923;27;20134;-83
2022/10/24 14:32:07;;;;;;;6.00;1.42;;;;;;;;;;5154765;27;20123;-83
2022/10/24 14:37:42;;;;;;;3.60;1.58;;;;;;;;;;5141518;27;20054;-84
2022/10/24 14:40:20;;;;;;;9.02;1.70;;;;;;;;;;5160152;27;20055;-83
2022/10/24 14:43:13;;;;;;;3.10;1.30;;;;;;;;;;5161029;27;20536;-83
2022/10/24 14:45:41;;;;;;;6.75;1.67;;;;;;;;;;5159450;27;20043;-83
2022/10/24 14:48:30;;;;;;;5.13;1.70;;;;;;;;;;5156592;27;20043;-83
2022/10/24 14:54:15;;;;;;;8.95;1.55;;;;;;;;;;5160797;27;20092;-83
2022/10/24 14:56:53;;;;;;;5.40;1.40;;;;;;;;;;5158401;27;20051;-83
2022/10/24 14:59:40;;;;;;;5.05;1.55;;;;;;;;;;5165016;27;20051;-83
2022/10/24 15:02:22;;;;;;;3.95;1.50;;;;;;;;;;5165885;27;20099;-83
2022/10/24 15:04:50;;;;;;;6.93;1.73;;;;;;;;;;5165019;27;20560;-84
2022/10/24 15:07:40;;;;;;;5.60;1.35;;;;;;;;;;5159730;27;20513;-83
2022/10/24 15:10:44;;;;;;;11.38;2.13;;;;;;;;;;5157106;27;20059;-83
2022/10/24 15:13:24;;;;;;;5.38;1.58;;;;;;;;;;5161040;27;20809;-85
2022/10/24 15:16:49;;;;;;;4.55;1.48;;;;;;;;;;5148842;27;20200;-84
2022/10/24 15:19:20;;;;;;;7.43;1.05;;;;;;;;;;5157248;27;20055;-83
2022/10/24 15:21:50;;;;;;;9.15;1.63;;;;;;;;;;5155231;27;20051;-86
2022/10/24 15:24:25;;;;;;;6.68;1.45;;;;;;;;;;5161040;27;20083;-83
2022/10/24 15:27:11;;;;;;;7.05;1.52;;;;;;;;;;5153599;27;20485;-86
2022/10/24 15:31:03;;;;;;;4.68;1.08;;;;;;;;;;5209586;27;20354;-72
2022/10/24 15:34:01;;;;;;;8.25;1.48;;;;;;;;;;5200729;27;20051;-78
2022/10/24 15:36:40;;;;;;;4.95;1.02;;;;;;;;;;5182072;27;20035;-76
2022/10/24 15:39:12;;;;;;;5.28;1.23;;;;;;;;;;5187818;27;20167;-76
2022/10/24 15:41:59;;;;;;;4.07;0.88;;;;;;;;;;5170145;27;20143;-75
2022/10/24 15:44:34;;;;;;;3.45;0.90;;;;;;;;;;5185789;27;20792;-74
2022/10/24 15:47:04;;;;;;;2.22;0.90;;;;;;;;;;5191898;27;20027;-75
2022/10/24 15:49:44;;;;;;;3.95;1.05;;;;;;;;;;5194087;27;20033;-74
2022/10/24 15:52:32;;;;;;;8.48;1.80;;;;;;;;;;5190017;27;20057;-76
2022/10/24 15:54:59;;;;;;;4.22;0.95;;;;;;;;;;5202939;27;20041;-75
2022/10/24 15:57:26;;;;;;;7.53;1.42;;;;;;;;;;5199720;27;20031;-75
2022/10/24 16:00:00;;;;;;;6.07;1.25;;;;;;;;;;5193863;27;20041;-75
2022/10/24 16:02:36;;;;;;;6.05;1.20;;;;;;;;;;5189439;27;20047;-77
2022/10/24 16:05:18;;;;;;;6.70;1.20;;;;;;;;;;5192670;27;20107;-77
2022/10/24 16:08:13;;;;;;;6.28;1.02;;;;;;;;;;5152684;27;20031;-76
2022/10/24 16:10:44;;;;;;;6.97;1.13;;;;;;;;;;5195480;27;20049;-77
2022/10/24 16:13:19;;;;;;;8.73;1.60;;;;;;;;;;5174380;27;20062;-76
2022/10/24 16:16:15;;;;;;;4.32;1.13;;;;;;;;;;5190686;27;20043;-77
2022/10/24 16:18:48;;;;;;;8.05;1.58;;;;;;;;;;5174626;27;20054;-77
2022/10/24 16:21:22;;;;;;;6.88;1.48;;;;;;;;;;5190424;27;20048;-77
2022/10/24 16:23:55;;;;;;;5.15;1.27;;;;;;;;;;5190556;27;20094;-76
2022/10/24 16:26:26;;;;;;;9.30;1.40;;;;;;;;;;5187475;27;20072;-76